createdAt,value
2023-04-11T00:01:08.514Z,99.90
2023-04-11T00:03:38.275Z,99.90
2023-04-11T00:06:05.391Z,99.90
2023-04-11T00:08:31.946Z,99.90
2023-04-11T00:10:58.764Z,99.90
2023-04-11T00:13:26.472Z,99.90
2023-04-11T00:15:55.403Z,99.90
2023-04-11T00:18:22.788Z,99.90
2023-04-11T00:20:49.481Z,99.90
2023-04-11T00:23:16.118Z,99.90
2023-04-11T00:25:42.762Z,99.90
2023-04-11T00:28:10.487Z,99.90
2023-04-11T00:30:37.122Z,99.90
2023-04-11T00:33:04.067Z,99.90
2023-04-11T00:35:34.790Z,99.90
2023-04-11T00:38:02.192Z,99.90
2023-04-11T00:40:28.923Z,99.90
2023-04-11T00:42:56.634Z,99.90
2023-04-11T00:45:23.497Z,99.90
2023-04-11T00:47:50.847Z,99.90
2023-04-11T00:50:18.491Z,99.90
2023-04-11T00:52:49.443Z,99.90
2023-04-11T00:55:16.540Z,99.90
2023-04-11T00:57:44.585Z,99.90
2023-04-11T01:00:12.040Z,99.90
2023-04-11T01:02:42.987Z,99.90
2023-04-11T01:05:11.114Z,99.90
2023-04-11T01:07:39.714Z,99.90
2023-04-11T01:10:07.251Z,99.90
2023-04-11T01:12:34.645Z,99.90
2023-04-11T01:15:01.356Z,99.90
2023-04-11T01:17:28.007Z,99.90
2023-04-11T01:19:54.698Z,99.90
2023-04-11T01:22:23.025Z,99.90
2023-04-11T01:24:49.876Z,99.90
2023-04-11T01:27:16.598Z,99.90
2023-04-11T01:29:43.270Z,99.90
2023-04-11T01:32:09.852Z,99.90
2023-04-11T01:34:39.731Z,99.90
2023-04-11T01:37:06.521Z,99.90
2023-04-11T01:39:33.105Z,99.90
2023-04-11T01:42:02.665Z,99.90
2023-04-11T01:44:30.770Z,99.90
2023-04-11T01:46:57.532Z,99.90
2023-04-11T01:49:25.728Z,99.90
2023-04-11T01:51:52.386Z,99.90
2023-04-11T01:54:18.971Z,99.90
2023-04-11T01:56:45.999Z,99.90
2023-04-11T01:59:12.632Z,99.90
2023-04-11T02:01:40.572Z,99.90
2023-04-11T02:04:07.302Z,99.90
2023-04-11T02:06:34.378Z,99.90
2023-04-11T02:09:00.931Z,99.90
2023-04-11T02:11:27.493Z,99.90
2023-04-11T02:13:54.112Z,99.90
2023-04-11T02:16:25.589Z,99.90
2023-04-11T02:18:53.771Z,99.90
2023-04-11T02:21:20.835Z,99.90
2023-04-11T02:23:47.386Z,99.90
2023-04-11T02:26:14.101Z,99.90
2023-04-11T02:28:40.675Z,99.90
2023-04-11T02:31:07.534Z,99.90
2023-04-11T02:33:34.174Z,99.90
2023-04-11T02:36:01.069Z,99.90
2023-04-11T02:38:27.743Z,99.90
2023-04-11T02:40:54.338Z,99.90
2023-04-11T02:43:21.087Z,99.90
2023-04-11T02:45:48.006Z,99.90
2023-04-11T02:48:14.597Z,99.90
2023-04-11T02:50:41.295Z,99.90
2023-04-11T02:53:08.070Z,99.90
2023-04-11T02:55:35.010Z,99.90
2023-04-11T02:58:01.724Z,99.90
2023-04-11T03:00:29.122Z,99.90
2023-04-11T03:02:56.756Z,99.90
2023-04-11T03:05:23.464Z,99.90
2023-04-11T03:07:50.176Z,99.90
2023-04-11T03:10:16.820Z,99.90
2023-04-11T03:12:43.452Z,99.90
2023-04-11T03:15:10.553Z,99.90
2023-04-11T03:17:37.120Z,99.90
2023-04-11T03:20:07.089Z,99.90
2023-04-11T03:22:33.709Z,99.90
2023-04-11T03:25:00.557Z,99.90
2023-04-11T03:27:27.277Z,99.90
2023-04-11T03:29:53.915Z,99.90
2023-04-11T03:32:20.516Z,99.90
2023-04-11T03:34:47.172Z,99.90
2023-04-11T03:37:13.741Z,99.90
2023-04-11T03:39:40.350Z,99.90
2023-04-11T03:42:06.977Z,99.90
2023-04-11T03:44:33.804Z,99.90
2023-04-11T03:47:00.430Z,99.90
2023-04-11T03:49:27.006Z,99.90
2023-04-11T03:51:53.645Z,99.90
2023-04-11T03:54:21.044Z,99.90
2023-04-11T03:56:47.650Z,99.90
2023-04-11T03:59:14.375Z,99.90
2023-04-11T04:01:40.994Z,99.90
2023-04-11T04:04:07.839Z,99.90
2023-04-11T04:06:35.709Z,99.90
2023-04-11T04:09:02.416Z,99.90
2023-04-11T04:11:29.014Z,99.90
2023-04-11T04:13:55.990Z,99.90
2023-04-11T04:16:22.837Z,99.90
2023-04-11T04:18:49.860Z,99.90
2023-04-11T04:21:16.720Z,99.90
2023-04-11T04:23:47.412Z,99.90
2023-04-11T04:26:17.648Z,99.90
2023-04-11T04:28:47.306Z,99.90
2023-04-11T04:31:19.492Z,99.90
2023-04-11T04:33:49.367Z,99.90
2023-04-11T04:36:17.799Z,99.90
2023-04-11T04:38:44.490Z,99.90
2023-04-11T04:41:15.431Z,99.90
2023-04-11T04:43:42.559Z,99.90
2023-04-11T04:46:09.517Z,99.90
2023-04-11T04:48:36.225Z,99.90
2023-04-11T04:51:04.597Z,99.90
2023-04-11T04:53:34.543Z,99.90
2023-04-11T04:56:01.856Z,99.90
2023-04-11T04:58:28.503Z,99.90
2023-04-11T05:00:57.768Z,99.90
2023-04-11T05:03:24.512Z,99.90
2023-04-11T05:05:51.196Z,99.90
2023-04-11T05:08:20.676Z,99.90
2023-04-11T05:10:47.336Z,99.90
2023-04-11T05:13:13.993Z,99.90
2023-04-11T05:15:46.494Z,99.90
2023-04-11T05:18:13.052Z,99.90
2023-04-11T05:20:39.627Z,99.90
2023-04-11T05:23:06.176Z,99.90
2023-04-11T05:25:32.878Z,99.90
2023-04-11T05:27:59.420Z,99.90
2023-04-11T05:30:26.219Z,99.90
2023-04-11T05:32:52.896Z,99.90
2023-04-11T05:35:19.508Z,99.90
2023-04-11T05:37:46.165Z,99.90
2023-04-11T05:40:12.785Z,99.90
2023-04-11T05:42:39.357Z,99.90
2023-04-11T05:45:06.609Z,99.90
2023-04-11T05:47:33.781Z,99.90
2023-04-11T05:50:00.424Z,99.90
2023-04-11T05:52:27.009Z,99.90
2023-04-11T05:54:53.596Z,99.90
2023-04-11T05:57:20.879Z,99.90
2023-04-11T05:59:49.892Z,99.90
2023-04-11T06:02:16.756Z,99.90
2023-04-11T06:04:43.489Z,99.90
2023-04-11T06:07:10.876Z,99.90
2023-04-11T06:09:37.444Z,99.90
2023-04-11T06:12:04.103Z,99.90
2023-04-11T06:14:30.892Z,99.90
2023-04-11T06:16:57.459Z,99.90
2023-04-11T06:19:24.246Z,99.90
2023-04-11T06:21:51.266Z,99.90
2023-04-11T06:24:20.566Z,99.90
2023-04-11T06:26:47.120Z,99.90
2023-04-11T06:29:13.736Z,99.90
2023-04-11T06:31:40.404Z,99.90
2023-04-11T06:34:07.115Z,99.90
2023-04-11T06:36:33.752Z,99.90
2023-04-11T06:39:00.322Z,99.90
2023-04-11T06:41:27.135Z,99.90
2023-04-11T06:43:54.232Z,99.90
2023-04-11T06:46:20.951Z,99.90
2023-04-11T06:48:47.628Z,99.90
2023-04-11T06:51:14.237Z,99.90
2023-04-11T06:53:40.789Z,99.90
2023-04-11T06:56:08.069Z,99.90
2023-04-11T06:58:34.702Z,99.90
2023-04-11T07:01:01.550Z,99.90
2023-04-11T07:03:28.371Z,99.90
2023-04-11T07:05:55.151Z,99.90
2023-04-11T07:08:21.730Z,99.90
2023-04-11T07:10:48.299Z,99.90
2023-04-11T07:13:15.415Z,99.90
2023-04-11T07:15:41.955Z,99.90
2023-04-11T07:18:08.861Z,99.90
2023-04-11T07:20:36.041Z,99.90
2023-04-11T07:23:03.332Z,99.90
2023-04-11T07:25:33.551Z,99.90
2023-04-11T07:28:00.599Z,99.90
2023-04-11T07:30:28.306Z,99.90
2023-04-11T07:32:54.982Z,99.90
2023-04-11T07:35:22.314Z,99.90
2023-04-11T07:37:48.863Z,99.90
2023-04-11T07:40:15.625Z,99.90
2023-04-11T07:42:42.427Z,99.90
2023-04-11T07:45:09.411Z,99.90
2023-04-11T07:47:36.137Z,99.90
2023-04-11T07:50:03.926Z,99.90
2023-04-11T07:52:30.611Z,99.90
2023-04-11T07:54:57.498Z,99.90
2023-04-11T07:57:24.128Z,99.90
2023-04-11T07:59:50.971Z,99.90
2023-04-11T08:02:17.855Z,99.90
2023-04-11T08:04:45.769Z,99.90
2023-04-11T08:07:12.388Z,99.90
2023-04-11T08:09:39.059Z,99.90
2023-04-11T08:12:06.095Z,99.90
2023-04-11T08:14:32.715Z,99.90
2023-04-11T08:16:59.780Z,99.90
2023-04-11T08:19:26.990Z,99.90
2023-04-11T08:21:53.895Z,99.90
2023-04-11T08:24:20.767Z,99.90
2023-04-11T08:26:47.388Z,99.90
2023-04-11T08:29:14.030Z,99.90
2023-04-11T08:31:46.712Z,99.90
2023-04-11T08:34:13.430Z,99.90
2023-04-11T08:36:41.332Z,99.90
2023-04-11T08:39:07.933Z,99.90
2023-04-11T08:41:35.742Z,99.90
2023-04-11T08:44:02.448Z,99.90
2023-04-11T08:46:32.053Z,99.90
2023-04-11T08:48:58.798Z,99.90
2023-04-11T08:51:28.919Z,99.90
2023-04-11T08:53:59.436Z,99.90
2023-04-11T08:56:26.024Z,99.90
2023-04-11T08:58:52.602Z,99.90
2023-04-11T09:01:26.138Z,99.90
2023-04-11T09:03:53.175Z,99.90
2023-04-11T09:06:19.845Z,99.90
2023-04-11T09:08:46.778Z,99.90
2023-04-11T09:11:13.365Z,99.90
2023-04-11T09:13:39.896Z,99.90
2023-04-11T09:16:14.280Z,99.90
2023-04-11T09:18:46.192Z,99.90
2023-04-11T09:21:14.784Z,99.90
2023-04-11T09:23:41.683Z,99.90
2023-04-11T09:26:11.064Z,99.90
2023-04-11T09:28:44.715Z,99.90
2023-04-11T09:31:14.365Z,99.90
2023-04-11T09:33:53.674Z,99.90
2023-04-11T09:36:22.781Z,99.90
2023-04-11T09:38:49.443Z,99.90
2023-04-11T09:41:28.592Z,99.90
2023-04-11T09:43:56.113Z,99.90
2023-04-11T09:46:23.186Z,99.90
2023-04-11T09:48:51.594Z,99.90
2023-04-11T09:51:34.164Z,99.90
2023-04-11T09:54:03.693Z,99.90
2023-04-11T09:56:31.428Z,99.90
2023-04-11T09:58:59.821Z,99.90
2023-04-11T10:01:27.098Z,99.90
2023-04-11T10:03:55.414Z,99.90
2023-04-11T10:06:31.602Z,99.90
2023-04-11T10:09:12.188Z,99.90
2023-04-11T10:11:43.203Z,99.90
2023-04-11T10:14:29.966Z,99.90
2023-04-11T10:17:14.022Z,99.90
2023-04-11T10:19:40.777Z,99.90
2023-04-11T10:22:07.626Z,99.90
2023-04-11T10:24:34.212Z,99.90
2023-04-11T10:27:06.156Z,99.90
2023-04-11T10:29:40.567Z,99.90
2023-04-11T10:32:16.288Z,99.90
2023-04-11T10:34:51.930Z,99.90
2023-04-11T10:37:30.660Z,99.90
2023-04-11T10:40:12.239Z,95.80
2023-04-11T10:42:46.630Z,95.90
2023-04-11T10:45:26.576Z,96.30
2023-04-11T10:47:56.615Z,99.80
2023-04-11T10:50:28.741Z,99.90
2023-04-11T10:53:00.407Z,99.90
2023-04-11T10:55:29.115Z,99.90
2023-04-11T10:58:08.535Z,99.90
2023-04-11T11:00:50.600Z,99.90
2023-04-11T11:03:22.600Z,99.90
2023-04-11T11:06:04.476Z,99.30
2023-04-11T11:08:34.412Z,97.20
2023-04-11T11:11:06.682Z,96.50
2023-04-11T11:13:41.476Z,97.60
2023-04-11T11:16:09.369Z,99.90
2023-04-11T11:18:37.081Z,99.70
2023-04-11T11:21:04.754Z,97.40
2023-04-11T11:23:32.522Z,96.70
2023-04-11T11:26:00.247Z,94.10
2023-04-11T11:30:58.685Z,89.30
2023-04-11T11:33:26.626Z,87.70
2023-04-11T11:36:02.210Z,87.20
2023-04-11T11:38:30.149Z,91.90
2023-04-11T11:40:58.100Z,94.00
2023-04-11T11:43:28.900Z,96.60
2023-04-11T11:46:24.799Z,99.70
2023-04-11T11:49:00.245Z,99.90
2023-04-11T11:51:27.898Z,99.90
2023-04-11T11:54:08.609Z,99.90
2023-04-11T11:56:36.715Z,99.90
2023-04-11T11:59:07.031Z,99.90
2023-04-11T12:01:37.548Z,99.90
2023-04-11T12:04:10.933Z,99.90
2023-04-11T12:06:37.674Z,99.90
2023-04-11T12:09:12.065Z,99.90
2023-04-11T12:11:40.559Z,99.90
2023-04-11T12:14:08.874Z,99.90
2023-04-11T12:16:38.275Z,99.90
2023-04-11T12:19:05.343Z,99.90
2023-04-11T12:21:32.207Z,99.90
2023-04-11T12:23:58.932Z,99.90
2023-04-11T12:26:25.729Z,99.90
2023-04-11T12:28:52.412Z,99.90
2023-04-11T12:31:20.456Z,99.90
2023-04-11T12:33:47.186Z,99.90
2023-04-11T12:36:13.822Z,99.90
2023-04-11T12:38:40.903Z,99.90
2023-04-11T12:41:30.068Z,99.90
2023-04-11T12:43:54.528Z,99.90
2023-04-11T12:46:21.274Z,99.90
2023-04-11T12:48:47.962Z,99.90
2023-04-11T12:51:14.636Z,99.90
2023-04-11T12:53:41.190Z,99.90
2023-04-11T12:56:08.521Z,99.90
2023-04-11T12:58:35.366Z,99.90
2023-04-11T13:01:01.968Z,99.90
2023-04-11T13:03:29.153Z,99.90
2023-04-11T13:05:56.255Z,99.90
2023-04-11T13:08:22.833Z,99.90
2023-04-11T13:10:49.378Z,99.90
2023-04-11T13:13:18.440Z,99.90
2023-04-11T13:15:46.377Z,99.90
2023-04-11T13:18:13.011Z,99.90
2023-04-11T13:20:39.700Z,99.90
2023-04-11T13:23:06.388Z,99.90
2023-04-11T13:25:33.097Z,99.90
2023-04-11T13:27:59.718Z,99.90
2023-04-11T13:30:26.450Z,99.90
2023-04-11T13:32:53.034Z,99.90
2023-04-11T13:35:19.666Z,99.90
2023-04-11T13:37:46.306Z,99.90
2023-04-11T13:40:13.166Z,99.90
2023-04-11T13:42:39.731Z,99.90
2023-04-11T13:45:06.982Z,99.90
2023-04-11T13:47:36.070Z,99.90
2023-04-11T13:50:04.899Z,99.90
2023-04-11T13:52:31.732Z,99.90
2023-04-11T13:54:58.291Z,99.90
2023-04-11T13:57:28.380Z,99.90
2023-04-11T13:59:54.973Z,99.90
2023-04-11T14:02:21.658Z,99.90
2023-04-11T14:04:49.276Z,99.90
2023-04-11T14:07:16.040Z,99.90
2023-04-11T14:09:42.814Z,99.90
2023-04-11T14:12:09.660Z,99.90
2023-04-11T14:14:36.353Z,99.90
2023-04-11T14:17:03.063Z,99.90
2023-04-11T14:19:29.881Z,99.90
2023-04-11T14:21:57.700Z,99.90
2023-04-11T14:24:24.927Z,99.90
2023-04-11T14:26:51.499Z,99.90
2023-04-11T14:29:19.444Z,99.90
2023-04-11T14:31:47.101Z,99.90
2023-04-11T14:34:13.886Z,99.90
2023-04-11T14:36:40.529Z,99.90
2023-04-11T14:39:07.215Z,99.90
2023-04-11T14:41:33.849Z,99.90
2023-04-11T14:44:00.681Z,99.90
2023-04-11T14:46:28.425Z,99.90
2023-04-11T14:48:56.066Z,99.90
2023-04-11T14:51:26.951Z,99.90
2023-04-11T14:53:55.412Z,99.90
2023-04-11T14:56:23.227Z,99.90
2023-04-11T14:58:50.479Z,99.90
2023-04-11T15:01:17.719Z,99.90
2023-04-11T15:03:45.240Z,99.90
2023-04-11T15:06:12.685Z,99.90
2023-04-11T15:08:40.298Z,99.90
2023-04-11T15:11:07.984Z,99.90
2023-04-11T15:13:34.805Z,99.90
2023-04-11T15:16:02.369Z,99.90
2023-04-11T15:18:30.741Z,99.90
2023-04-11T15:20:59.424Z,99.90
2023-04-11T15:23:26.558Z,99.90
2023-04-11T15:25:54.696Z,99.90
2023-04-11T15:28:21.982Z,99.90
2023-04-11T15:30:50.837Z,99.90
2023-04-11T15:33:17.886Z,99.90
2023-04-11T15:35:45.981Z,99.90
2023-04-11T15:38:13.985Z,99.90
2023-04-11T15:40:40.883Z,99.90
2023-04-11T15:43:08.867Z,99.90
2023-04-11T15:45:37.012Z,99.90
2023-04-11T15:48:04.383Z,99.90
2023-04-11T15:50:32.243Z,99.90
2023-04-11T15:52:58.998Z,99.90
2023-04-11T15:55:25.540Z,99.90
2023-04-11T15:57:52.488Z,99.90
2023-04-11T16:00:22.107Z,99.90
2023-04-11T16:02:49.611Z,99.90
2023-04-11T16:05:16.877Z,99.90
2023-04-11T16:07:43.654Z,99.90
2023-04-11T16:10:10.672Z,99.90
2023-04-11T16:12:37.818Z,99.90
2023-04-11T16:15:05.654Z,99.90
2023-04-11T16:17:32.897Z,99.90
2023-04-11T16:19:59.894Z,99.90
2023-04-11T16:22:26.525Z,99.90
2023-04-11T16:24:53.519Z,99.90
2023-04-11T16:27:20.070Z,99.90
2023-04-11T16:29:46.682Z,99.90
2023-04-11T16:32:13.348Z,99.90
2023-04-11T16:34:40.024Z,99.90
2023-04-11T16:37:06.616Z,99.90
2023-04-11T16:39:33.184Z,99.90
2023-04-11T16:41:59.800Z,99.90
2023-04-11T16:44:26.458Z,99.90
2023-04-11T16:46:53.002Z,99.90
2023-04-11T16:49:19.696Z,99.90
2023-04-11T16:51:46.317Z,99.90
2023-04-11T16:54:13.553Z,99.90
2023-04-11T16:56:40.767Z,99.90
2023-04-11T16:59:07.386Z,99.90
2023-04-11T17:01:34.098Z,99.90
2023-04-11T17:04:01.263Z,99.90
2023-04-11T17:06:28.347Z,99.90
2023-04-11T17:08:56.922Z,99.90
2023-04-11T17:11:23.549Z,99.90
2023-04-11T17:13:50.752Z,99.90
2023-04-11T17:16:18.040Z,99.90
2023-04-11T17:18:44.735Z,99.90
2023-04-11T17:21:11.354Z,99.90
2023-04-11T17:23:42.962Z,99.90
2023-04-11T17:26:11.324Z,99.90
2023-04-11T17:28:42.510Z,99.90
2023-04-11T17:31:17.345Z,99.90
2023-04-11T17:33:45.021Z,99.90
2023-04-11T17:36:12.684Z,99.90
2023-04-11T17:38:40.446Z,99.90
2023-04-11T17:41:14.373Z,99.90
2023-04-11T17:43:43.606Z,99.90
2023-04-11T17:46:10.304Z,99.90
2023-04-11T17:48:37.109Z,99.90
2023-04-11T17:51:05.510Z,99.90
2023-04-11T17:53:32.667Z,99.90
2023-04-11T17:56:03.191Z,99.90
2023-04-11T17:58:30.161Z,99.90
2023-04-11T18:00:57.316Z,99.90
2023-04-11T18:03:25.441Z,99.90
2023-04-11T18:05:53.917Z,99.90
2023-04-11T18:08:23.935Z,99.90
2023-04-11T18:10:56.726Z,99.90
2023-04-11T18:13:23.435Z,99.90
2023-04-11T18:15:50.204Z,99.90
2023-04-11T18:18:16.896Z,99.90
2023-04-11T18:20:43.511Z,99.90
2023-04-11T18:23:10.330Z,99.90
2023-04-11T18:25:36.906Z,99.90
2023-04-11T18:28:03.582Z,99.90
2023-04-11T18:30:30.383Z,99.90
2023-04-11T18:32:57.393Z,99.90
2023-04-11T18:35:24.253Z,99.90
2023-04-11T18:37:51.076Z,99.90
2023-04-11T18:40:18.915Z,99.90
2023-04-11T18:42:50.309Z,99.90
2023-04-11T18:45:20.370Z,99.90
2023-04-11T18:47:47.163Z,99.90
2023-04-11T18:50:14.493Z,99.90
2023-04-11T18:52:41.360Z,99.90
2023-04-11T18:55:09.916Z,99.90
2023-04-11T18:57:38.254Z,99.90
2023-04-11T19:00:18.565Z,99.90
2023-04-11T19:02:46.641Z,99.90
2023-04-11T19:05:14.350Z,99.90
2023-04-11T19:07:45.108Z,99.90
2023-04-11T19:10:12.219Z,99.90
2023-04-11T19:12:39.361Z,99.90
2023-04-11T19:15:07.861Z,99.90
2023-04-11T19:17:35.681Z,99.90
2023-04-11T19:20:06.583Z,99.90
2023-04-11T19:22:39.697Z,99.90
2023-04-11T19:25:09.420Z,99.90
2023-04-11T19:27:39.004Z,99.90
2023-04-11T19:30:08.440Z,99.90
2023-04-11T19:32:38.400Z,99.90
2023-04-11T19:35:10.493Z,99.90
2023-04-11T19:37:37.798Z,99.90
2023-04-11T19:40:10.794Z,99.90
2023-04-11T19:42:39.043Z,99.90
2023-04-11T19:45:06.545Z,99.90
2023-04-11T19:47:33.389Z,99.90
2023-04-11T19:50:00.856Z,99.90
2023-04-11T19:52:28.347Z,99.90
2023-04-11T19:54:56.223Z,99.90
2023-04-11T19:57:23.729Z,99.90
2023-04-11T19:59:50.722Z,99.90
2023-04-11T20:02:17.415Z,99.90
2023-04-11T20:04:45.726Z,99.90
2023-04-11T20:07:12.584Z,99.90
2023-04-11T20:09:39.140Z,99.90
2023-04-11T20:12:06.579Z,99.90
2023-04-11T20:14:33.671Z,99.90
2023-04-11T20:17:00.679Z,99.90
2023-04-11T20:19:29.379Z,99.90
2023-04-11T20:21:56.134Z,99.90
2023-04-11T20:24:22.904Z,99.90
2023-04-11T20:26:50.816Z,99.90
2023-04-11T20:29:17.943Z,99.90
2023-04-11T20:31:44.879Z,99.90
2023-04-11T20:34:11.647Z,99.90
2023-04-11T20:36:38.611Z,99.90
2023-04-11T20:39:05.219Z,99.90
2023-04-11T20:41:32.129Z,99.90
2023-04-11T20:43:59.403Z,99.90
2023-04-11T20:46:29.423Z,99.90
2023-04-11T20:48:56.117Z,99.90
2023-04-11T20:51:22.825Z,99.90
2023-04-11T20:53:49.395Z,99.90
2023-04-11T20:56:16.017Z,99.90
2023-04-11T20:58:42.694Z,99.90
2023-04-11T21:01:09.368Z,99.90
2023-04-11T21:03:38.525Z,99.90
2023-04-11T21:06:07.348Z,99.90
2023-04-11T21:08:37.207Z,99.90
2023-04-11T21:11:04.843Z,99.90
2023-04-11T21:13:31.516Z,99.90
2023-04-11T21:15:58.456Z,99.90
2023-04-11T21:18:25.404Z,99.90
2023-04-11T21:20:52.012Z,99.90
2023-04-11T21:23:18.627Z,99.90
2023-04-11T21:25:45.329Z,99.90
2023-04-11T21:28:11.912Z,99.90
2023-04-11T21:30:39.392Z,99.90
2023-04-11T21:33:06.098Z,99.90
2023-04-11T21:35:32.839Z,99.90
2023-04-11T21:37:59.435Z,99.90
2023-04-11T21:40:26.176Z,99.90
2023-04-11T21:42:53.186Z,99.90
2023-04-11T21:45:19.795Z,99.90
2023-04-11T21:47:46.816Z,99.90
2023-04-11T21:50:13.458Z,99.90
2023-04-11T21:52:40.203Z,99.90
2023-04-11T21:55:09.120Z,99.90
2023-04-11T21:57:35.890Z,99.90
2023-04-11T22:00:03.563Z,99.90
2023-04-11T22:02:30.603Z,99.90
2023-04-11T22:05:06.250Z,99.90
2023-04-11T22:07:47.073Z,99.90
2023-04-11T22:10:14.108Z,99.90
2023-04-11T22:12:41.615Z,99.90
2023-04-11T22:15:09.691Z,99.90
2023-04-11T22:17:37.215Z,99.90
2023-04-11T22:20:06.726Z,99.90
2023-04-11T22:22:33.418Z,99.90
2023-04-11T22:25:00.310Z,99.90
2023-04-11T22:27:27.206Z,99.90
2023-04-11T22:29:56.100Z,99.90
2023-04-11T22:32:23.660Z,99.90
2023-04-11T22:34:50.415Z,99.90
2023-04-11T22:37:17.082Z,99.90
2023-04-11T22:39:43.749Z,99.90
2023-04-11T22:42:11.469Z,99.90
2023-04-11T22:44:38.188Z,99.90
2023-04-11T22:47:07.877Z,99.90
2023-04-11T22:49:40.425Z,99.90
2023-04-11T22:52:08.940Z,99.90
2023-04-11T22:54:35.677Z,99.90
2023-04-11T22:57:02.551Z,99.90
2023-04-11T22:59:29.199Z,99.90
2023-04-11T23:01:55.830Z,99.90
2023-04-11T23:04:22.636Z,99.90
2023-04-11T23:06:50.311Z,99.90
2023-04-11T23:09:18.078Z,99.90
2023-04-11T23:11:46.848Z,99.90
2023-04-11T23:14:15.419Z,99.90
2023-04-11T23:16:43.512Z,99.90
2023-04-11T23:19:10.421Z,99.90
2023-04-11T23:21:37.744Z,99.90
2023-04-11T23:24:06.543Z,99.90
2023-04-11T23:26:33.368Z,99.90
2023-04-11T23:29:02.004Z,99.90
2023-04-11T23:31:28.733Z,99.90
2023-04-11T23:33:55.718Z,99.90
2023-04-11T23:36:22.749Z,99.90
2023-04-11T23:38:49.321Z,99.90
2023-04-11T23:41:15.859Z,99.90
2023-04-11T23:43:42.495Z,99.90
2023-04-11T23:46:09.155Z,99.90
2023-04-11T23:48:35.862Z,99.90
2023-04-11T23:51:02.456Z,99.90
2023-04-11T23:53:29.148Z,99.90
2023-04-11T23:55:55.801Z,99.90
2023-04-11T23:58:22.476Z,99.90
